sensor_id;sensor_type;location;lat;lon;timestamp;P1;durP1;ratioP1;P2;durP2;ratioP2
9675;SDS011;4876;42.656;23.292;2022-10-30T00:00:43;11.63;;;5.73;;
9675;SDS011;4876;42.656;23.292;2022-10-30T00:03:11;7.70;;;5.30;;
9675;SDS011;4876;42.656;23.292;2022-10-30T00:05:41;9.07;;;5.03;;
9675;SDS011;4876;42.656;23.292;2022-10-30T00:08:09;8.20;;;5.20;;
9675;SDS011;4876;42.656;23.292;2022-10-30T00:10:36;5.97;;;4.20;;
9675;SDS011;4876;42.656;23.292;2022-10-30T00:13:05;8.47;;;4.30;;
9675;SDS011;4876;42.656;23.292;2022-10-30T00:15:32;6.37;;;4.43;;
9675;SDS011;4876;42.656;23.292;2022-10-30T00:17:59;5.13;;;4.07;;
9675;SDS011;4876;42.656;23.292;2022-10-30T00:20:26;5.30;;;4.13;;
9675;SDS011;4876;42.656;23.292;2022-10-30T00:22:53;5.87;;;4.50;;
9675;SDS011;4876;42.656;23.292;2022-10-30T00:25:19;6.00;;;4.63;;
9675;SDS011;4876;42.656;23.292;2022-10-30T00:27:46;5.83;;;3.90;;
9675;SDS011;4876;42.656;23.292;2022-10-30T00:30:14;8.20;;;4.83;;
9675;SDS011;4876;42.656;23.292;2022-10-30T00:32:43;7.47;;;3.97;;
9675;SDS011;4876;42.656;23.292;2022-10-30T00:35:09;6.23;;;4.00;;
9675;SDS011;4876;42.656;23.292;2022-10-30T00:37:36;4.80;;;3.73;;
9675;SDS011;4876;42.656;23.292;2022-10-30T00:40:03;6.97;;;4.57;;
9675;SDS011;4876;42.656;23.292;2022-10-30T00:42:31;6.20;;;4.23;;
9675;SDS011;4876;42.656;23.292;2022-10-30T00:44:59;4.27;;;3.83;;
9675;SDS011;4876;42.656;23.292;2022-10-30T00:47:29;5.07;;;3.93;;
9675;SDS011;4876;42.656;23.292;2022-10-30T00:50:00;8.57;;;4.17;;
9675;SDS011;4876;42.656;23.292;2022-10-30T00:52:32;7.47;;;4.70;;
9675;SDS011;4876;42.656;23.292;2022-10-30T00:55:02;7.37;;;4.57;;
9675;SDS011;4876;42.656;23.292;2022-10-30T00:57:33;6.10;;;4.37;;
9675;SDS011;4876;42.656;23.292;2022-10-30T01:00:03;7.23;;;4.40;;
9675;SDS011;4876;42.656;23.292;2022-10-30T01:02:32;9.87;;;4.57;;
9675;SDS011;4876;42.656;23.292;2022-10-30T01:04:59;4.67;;;3.73;;
9675;SDS011;4876;42.656;23.292;2022-10-30T01:07:28;5.70;;;4.43;;
9675;SDS011;4876;42.656;23.292;2022-10-30T01:09:54;5.13;;;3.97;;
9675;SDS011;4876;42.656;23.292;2022-10-30T01:12:21;6.80;;;4.27;;
9675;SDS011;4876;42.656;23.292;2022-10-30T01:14:48;6.07;;;4.00;;
9675;SDS011;4876;42.656;23.292;2022-10-30T01:17:28;5.13;;;3.97;;
9675;SDS011;4876;42.656;23.292;2022-10-30T01:20:21;7.90;;;4.63;;
9675;SDS011;4876;42.656;23.292;2022-10-30T01:23:03;6.83;;;4.70;;
9675;SDS011;4876;42.656;23.292;2022-10-30T01:25:46;10.17;;;5.77;;
9675;SDS011;4876;42.656;23.292;2022-10-30T01:28:25;7.63;;;5.13;;
9675;SDS011;4876;42.656;23.292;2022-10-30T01:31:02;6.53;;;5.20;;
9675;SDS011;4876;42.656;23.292;2022-10-30T01:33:43;6.50;;;5.07;;
9675;SDS011;4876;42.656;23.292;2022-10-30T01:36:20;12.47;;;5.47;;
9675;SDS011;4876;42.656;23.292;2022-10-30T01:38:51;7.57;;;4.57;;
9675;SDS011;4876;42.656;23.292;2022-10-30T01:41:20;6.00;;;4.80;;
9675;SDS011;4876;42.656;23.292;2022-10-30T01:43:47;6.47;;;4.33;;
9675;SDS011;4876;42.656;23.292;2022-10-30T01:46:27;8.07;;;5.00;;
9675;SDS011;4876;42.656;23.292;2022-10-30T01:49:15;7.47;;;4.97;;
9675;SDS011;4876;42.656;23.292;2022-10-30T01:51:57;8.10;;;5.10;;
9675;SDS011;4876;42.656;23.292;2022-10-30T01:54:32;8.00;;;4.90;;
9675;SDS011;4876;42.656;23.292;2022-10-30T01:57:10;7.40;;;5.17;;
9675;SDS011;4876;42.656;23.292;2022-10-30T01:59:45;7.77;;;5.27;;
9675;SDS011;4876;42.656;23.292;2022-10-30T02:02:15;7.07;;;5.10;;
9675;SDS011;4876;42.656;23.292;2022-10-30T02:04:44;7.50;;;5.57;;
9675;SDS011;4876;42.656;23.292;2022-10-30T02:07:11;10.13;;;5.70;;
9675;SDS011;4876;42.656;23.292;2022-10-30T02:09:38;7.13;;;5.07;;
9675;SDS011;4876;42.656;23.292;2022-10-30T02:12:05;7.53;;;5.33;;
9675;SDS011;4876;42.656;23.292;2022-10-30T02:14:33;7.20;;;5.33;;
9675;SDS011;4876;42.656;23.292;2022-10-30T02:17:04;8.87;;;5.60;;
9675;SDS011;4876;42.656;23.292;2022-10-30T02:19:32;8.47;;;5.73;;
9675;SDS011;4876;42.656;23.292;2022-10-30T02:22:00;8.63;;;5.83;;
9675;SDS011;4876;42.656;23.292;2022-10-30T02:24:27;10.57;;;5.90;;
9675;SDS011;4876;42.656;23.292;2022-10-30T02:26:54;9.87;;;6.00;;
9675;SDS011;4876;42.656;23.292;2022-10-30T02:29:21;7.97;;;5.93;;
9675;SDS011;4876;42.656;23.292;2022-10-30T02:31:47;7.47;;;5.27;;
9675;SDS011;4876;42.656;23.292;2022-10-30T02:34:15;11.77;;;5.97;;
9675;SDS011;4876;42.656;23.292;2022-10-30T02:36:42;7.90;;;5.47;;
9675;SDS011;4876;42.656;23.292;2022-10-30T02:39:10;7.93;;;5.23;;
9675;SDS011;4876;42.656;23.292;2022-10-30T02:41:37;10.00;;;5.57;;
9675;SDS011;4876;42.656;23.292;2022-10-30T02:44:04;8.53;;;5.67;;
9675;SDS011;4876;42.656;23.292;2022-10-30T02:46:31;8.03;;;6.30;;
9675;SDS011;4876;42.656;23.292;2022-10-30T02:48:58;8.23;;;5.97;;
9675;SDS011;4876;42.656;23.292;2022-10-30T02:51:25;7.17;;;5.33;;
9675;SDS011;4876;42.656;23.292;2022-10-30T02:53:52;7.50;;;5.67;;
9675;SDS011;4876;42.656;23.292;2022-10-30T02:56:20;11.17;;;6.40;;
9675;SDS011;4876;42.656;23.292;2022-10-30T02:58:47;8.47;;;6.07;;
9675;SDS011;4876;42.656;23.292;2022-10-30T03:01:14;8.23;;;6.10;;
9675;SDS011;4876;42.656;23.292;2022-10-30T03:03:42;10.13;;;5.17;;
9675;SDS011;4876;42.656;23.292;2022-10-30T03:06:09;9.60;;;6.27;;
9675;SDS011;4876;42.656;23.292;2022-10-30T03:08:39;6.97;;;5.47;;
9675;SDS011;4876;42.656;23.292;2022-10-30T03:11:07;7.30;;;5.47;;
9675;SDS011;4876;42.656;23.292;2022-10-30T03:13:37;6.63;;;5.67;;
9675;SDS011;4876;42.656;23.292;2022-10-30T03:16:07;13.87;;;6.23;;
9675;SDS011;4876;42.656;23.292;2022-10-30T03:18:35;7.87;;;6.47;;
9675;SDS011;4876;42.656;23.292;2022-10-30T03:21:03;10.30;;;6.97;;
9675;SDS011;4876;42.656;23.292;2022-10-30T03:23:32;9.03;;;6.33;;
9675;SDS011;4876;42.656;23.292;2022-10-30T03:25:59;9.43;;;6.33;;
9675;SDS011;4876;42.656;23.292;2022-10-30T03:28:26;9.07;;;6.50;;
9675;SDS011;4876;42.656;23.292;2022-10-30T03:30:58;8.40;;;6.37;;
9675;SDS011;4876;42.656;23.292;2022-10-30T03:33:26;10.70;;;6.97;;
9675;SDS011;4876;42.656;23.292;2022-10-30T03:35:53;8.17;;;6.47;;
9675;SDS011;4876;42.656;23.292;2022-10-30T03:38:19;8.10;;;5.60;;
9675;SDS011;4876;42.656;23.292;2022-10-30T03:40:46;6.47;;;5.50;;
9675;SDS011;4876;42.656;23.292;2022-10-30T03:43:13;8.70;;;6.10;;
9675;SDS011;4876;42.656;23.292;2022-10-30T03:45:44;8.93;;;6.37;;
9675;SDS011;4876;42.656;23.292;2022-10-30T03:48:13;8.53;;;5.80;;
9675;SDS011;4876;42.656;23.292;2022-10-30T03:50:40;10.90;;;6.20;;
9675;SDS011;4876;42.656;23.292;2022-10-30T03:53:07;13.17;;;6.47;;
9675;SDS011;4876;42.656;23.292;2022-10-30T03:55:34;7.77;;;5.27;;
9675;SDS011;4876;42.656;23.292;2022-10-30T03:58:01;9.00;;;6.20;;
9675;SDS011;4876;42.656;23.292;2022-10-30T04:00:28;11.13;;;6.70;;
9675;SDS011;4876;42.656;23.292;2022-10-30T04:02:55;7.13;;;5.80;;
9675;SDS011;4876;42.656;23.292;2022-10-30T04:05:23;7.33;;;6.23;;
9675;SDS011;4876;42.656;23.292;2022-10-30T04:07:54;9.87;;;6.60;;
9675;SDS011;4876;42.656;23.292;2022-10-30T04:10:21;8.73;;;6.70;;
9675;SDS011;4876;42.656;23.292;2022-10-30T04:12:48;9.13;;;6.17;;
9675;SDS011;4876;42.656;23.292;2022-10-30T04:15:17;9.57;;;6.43;;
9675;SDS011;4876;42.656;23.292;2022-10-30T04:17:47;11.47;;;6.80;;
9675;SDS011;4876;42.656;23.292;2022-10-30T04:20:15;9.67;;;7.07;;
9675;SDS011;4876;42.656;23.292;2022-10-30T04:22:44;9.13;;;6.70;;
9675;SDS011;4876;42.656;23.292;2022-10-30T04:25:29;9.47;;;7.03;;
9675;SDS011;4876;42.656;23.292;2022-10-30T04:27:56;9.60;;;7.37;;
9675;SDS011;4876;42.656;23.292;2022-10-30T04:30:23;8.43;;;6.77;;
9675;SDS011;4876;42.656;23.292;2022-10-30T04:32:52;10.10;;;6.10;;
9675;SDS011;4876;42.656;23.292;2022-10-30T04:35:20;11.07;;;6.87;;
9675;SDS011;4876;42.656;23.292;2022-10-30T04:37:53;12.70;;;7.43;;
9675;SDS011;4876;42.656;23.292;2022-10-30T04:40:20;10.17;;;7.37;;
9675;SDS011;4876;42.656;23.292;2022-10-30T04:42:47;7.77;;;6.33;;
9675;SDS011;4876;42.656;23.292;2022-10-30T04:45:14;11.43;;;7.60;;
9675;SDS011;4876;42.656;23.292;2022-10-30T04:47:41;8.80;;;7.07;;
9675;SDS011;4876;42.656;23.292;2022-10-30T04:50:08;6.87;;;6.17;;
9675;SDS011;4876;42.656;23.292;2022-10-30T04:52:35;10.40;;;7.53;;
9675;SDS011;4876;42.656;23.292;2022-10-30T04:55:04;10.10;;;6.70;;
9675;SDS011;4876;42.656;23.292;2022-10-30T04:57:32;9.60;;;7.40;;
9675;SDS011;4876;42.656;23.292;2022-10-30T04:59:59;11.13;;;7.57;;
9675;SDS011;4876;42.656;23.292;2022-10-30T05:02:26;10.73;;;7.30;;
9675;SDS011;4876;42.656;23.292;2022-10-30T05:04:52;11.17;;;7.23;;
9675;SDS011;4876;42.656;23.292;2022-10-30T05:07:19;11.37;;;6.90;;
9675;SDS011;4876;42.656;23.292;2022-10-30T05:09:46;10.70;;;7.27;;
9675;SDS011;4876;42.656;23.292;2022-10-30T05:12:14;10.73;;;7.23;;
9675;SDS011;4876;42.656;23.292;2022-10-30T05:14:43;8.70;;;6.60;;
9675;SDS011;4876;42.656;23.292;2022-10-30T05:17:10;8.80;;;7.13;;
9675;SDS011;4876;42.656;23.292;2022-10-30T05:19:37;9.97;;;6.90;;
9675;SDS011;4876;42.656;23.292;2022-10-30T05:22:03;9.47;;;7.30;;
9675;SDS011;4876;42.656;23.292;2022-10-30T05:24:30;8.60;;;6.83;;
9675;SDS011;4876;42.656;23.292;2022-10-30T05:26:57;9.83;;;6.70;;
9675;SDS011;4876;42.656;23.292;2022-10-30T05:29:25;9.23;;;6.63;;
9675;SDS011;4876;42.656;23.292;2022-10-30T05:31:52;9.13;;;6.00;;
9675;SDS011;4876;42.656;23.292;2022-10-30T05:34:18;8.40;;;6.00;;
9675;SDS011;4876;42.656;23.292;2022-10-30T05:36:45;9.60;;;6.90;;
9675;SDS011;4876;42.656;23.292;2022-10-30T05:39:12;8.87;;;6.63;;
9675;SDS011;4876;42.656;23.292;2022-10-30T05:41:41;11.07;;;7.40;;
9675;SDS011;4876;42.656;23.292;2022-10-30T05:44:08;11.07;;;7.33;;
9675;SDS011;4876;42.656;23.292;2022-10-30T05:46:36;9.40;;;6.67;;
9675;SDS011;4876;42.656;23.292;2022-10-30T05:49:03;11.83;;;7.07;;
9675;SDS011;4876;42.656;23.292;2022-10-30T05:51:29;8.07;;;6.87;;
9675;SDS011;4876;42.656;23.292;2022-10-30T05:53:56;16.73;;;7.07;;
9675;SDS011;4876;42.656;23.292;2022-10-30T05:56:23;13.03;;;6.83;;
9675;SDS011;4876;42.656;23.292;2022-10-30T05:58:50;8.37;;;6.23;;
9675;SDS011;4876;42.656;23.292;2022-10-30T06:01:17;11.13;;;7.47;;
9675;SDS011;4876;42.656;23.292;2022-10-30T06:03:45;12.90;;;8.23;;
9675;SDS011;4876;42.656;23.292;2022-10-30T06:06:12;13.80;;;7.97;;
9675;SDS011;4876;42.656;23.292;2022-10-30T06:08:39;12.03;;;8.23;;
9675;SDS011;4876;42.656;23.292;2022-10-30T06:11:06;9.50;;;7.43;;
9675;SDS011;4876;42.656;23.292;2022-10-30T06:13:32;12.50;;;7.80;;
9675;SDS011;4876;42.656;23.292;2022-10-30T06:15:59;12.77;;;8.30;;
9675;SDS011;4876;42.656;23.292;2022-10-30T06:18:26;15.17;;;8.70;;
9675;SDS011;4876;42.656;23.292;2022-10-30T06:20:54;10.43;;;8.07;;
9675;SDS011;4876;42.656;23.292;2022-10-30T06:23:21;15.87;;;9.17;;
9675;SDS011;4876;42.656;23.292;2022-10-30T06:25:48;10.93;;;8.40;;
9675;SDS011;4876;42.656;23.292;2022-10-30T06:28:15;13.67;;;9.03;;
9675;SDS011;4876;42.656;23.292;2022-10-30T06:30:41;12.53;;;8.87;;
9675;SDS011;4876;42.656;23.292;2022-10-30T06:33:08;9.53;;;7.80;;
9675;SDS011;4876;42.656;23.292;2022-10-30T06:35:35;15.20;;;8.80;;
9675;SDS011;4876;42.656;23.292;2022-10-30T06:38:03;13.83;;;9.83;;
9675;SDS011;4876;42.656;23.292;2022-10-30T06:40:30;14.50;;;9.83;;
9675;SDS011;4876;42.656;23.292;2022-10-30T06:42:57;14.90;;;9.43;;
9675;SDS011;4876;42.656;23.292;2022-10-30T06:45:24;15.00;;;9.07;;
9675;SDS011;4876;42.656;23.292;2022-10-30T06:47:51;15.33;;;9.13;;
9675;SDS011;4876;42.656;23.292;2022-10-30T06:50:18;15.37;;;9.50;;
9675;SDS011;4876;42.656;23.292;2022-10-30T06:52:46;13.33;;;8.87;;
9675;SDS011;4876;42.656;23.292;2022-10-30T06:55:15;17.73;;;10.20;;
9675;SDS011;4876;42.656;23.292;2022-10-30T06:57:42;10.93;;;8.70;;
9675;SDS011;4876;42.656;23.292;2022-10-30T07:00:09;10.80;;;9.20;;
9675;SDS011;4876;42.656;23.292;2022-10-30T07:02:37;11.00;;;8.57;;
9675;SDS011;4876;42.656;23.292;2022-10-30T07:05:04;15.47;;;9.33;;
9675;SDS011;4876;42.656;23.292;2022-10-30T07:07:31;13.50;;;9.50;;
9675;SDS011;4876;42.656;23.292;2022-10-30T07:09:58;15.13;;;9.60;;
9675;SDS011;4876;42.656;23.292;2022-10-30T07:12:26;12.10;;;9.40;;
9675;SDS011;4876;42.656;23.292;2022-10-30T07:14:53;16.37;;;9.87;;
9675;SDS011;4876;42.656;23.292;2022-10-30T07:17:20;15.30;;;9.50;;
9675;SDS011;4876;42.656;23.292;2022-10-30T07:19:47;11.43;;;8.27;;
9675;SDS011;4876;42.656;23.292;2022-10-30T07:22:13;11.60;;;7.90;;
9675;SDS011;4876;42.656;23.292;2022-10-30T07:24:40;16.63;;;10.00;;
9675;SDS011;4876;42.656;23.292;2022-10-30T07:27:07;14.03;;;9.40;;
9675;SDS011;4876;42.656;23.292;2022-10-30T07:29:35;16.20;;;10.13;;
9675;SDS011;4876;42.656;23.292;2022-10-30T07:32:02;14.50;;;9.23;;
9675;SDS011;4876;42.656;23.292;2022-10-30T07:34:29;14.83;;;9.83;;
9675;SDS011;4876;42.656;23.292;2022-10-30T07:36:56;12.03;;;9.37;;
9675;SDS011;4876;42.656;23.292;2022-10-30T07:39:23;16.07;;;10.40;;
9675;SDS011;4876;42.656;23.292;2022-10-30T07:41:49;13.70;;;9.80;;
9675;SDS011;4876;42.656;23.292;2022-10-30T07:44:16;13.13;;;9.47;;
9675;SDS011;4876;42.656;23.292;2022-10-30T07:46:45;12.67;;;9.77;;
9675;SDS011;4876;42.656;23.292;2022-10-30T07:49:12;13.23;;;9.77;;
9675;SDS011;4876;42.656;23.292;2022-10-30T07:51:39;22.13;;;10.57;;
9675;SDS011;4876;42.656;23.292;2022-10-30T07:54:05;14.77;;;10.67;;
9675;SDS011;4876;42.656;23.292;2022-10-30T07:56:32;16.53;;;10.50;;
9675;SDS011;4876;42.656;23.292;2022-10-30T07:58:59;15.53;;;10.87;;
9675;SDS011;4876;42.656;23.292;2022-10-30T08:01:26;17.00;;;9.60;;
9675;SDS011;4876;42.656;23.292;2022-10-30T08:03:54;14.17;;;10.83;;
9675;SDS011;4876;42.656;23.292;2022-10-30T08:06:21;17.87;;;9.30;;
9675;SDS011;4876;42.656;23.292;2022-10-30T08:08:47;12.67;;;9.57;;
9675;SDS011;4876;42.656;23.292;2022-10-30T08:11:14;14.20;;;8.70;;
9675;SDS011;4876;42.656;23.292;2022-10-30T08:13:41;12.87;;;9.53;;
9675;SDS011;4876;42.656;23.292;2022-10-30T08:16:07;12.73;;;9.50;;
9675;SDS011;4876;42.656;23.292;2022-10-30T08:18:34;15.87;;;8.87;;
9675;SDS011;4876;42.656;23.292;2022-10-30T08:21:04;14.23;;;9.80;;
9675;SDS011;4876;42.656;23.292;2022-10-30T08:23:31;12.03;;;8.57;;
9675;SDS011;4876;42.656;23.292;2022-10-30T08:25:57;10.27;;;8.53;;
9675;SDS011;4876;42.656;23.292;2022-10-30T08:28:25;12.40;;;9.30;;
9675;SDS011;4876;42.656;23.292;2022-10-30T08:30:52;15.47;;;9.70;;
9675;SDS011;4876;42.656;23.292;2022-10-30T08:33:19;12.90;;;9.07;;
9675;SDS011;4876;42.656;23.292;2022-10-30T08:35:46;12.67;;;9.47;;
9675;SDS011;4876;42.656;23.292;2022-10-30T08:38:16;12.53;;;9.23;;
9675;SDS011;4876;42.656;23.292;2022-10-30T08:40:43;10.87;;;9.07;;
9675;SDS011;4876;42.656;23.292;2022-10-30T08:43:10;13.53;;;10.70;;
9675;SDS011;4876;42.656;23.292;2022-10-30T08:45:37;13.63;;;9.40;;
9675;SDS011;4876;42.656;23.292;2022-10-30T08:48:04;12.80;;;9.60;;
9675;SDS011;4876;42.656;23.292;2022-10-30T08:50:32;21.80;;;10.67;;
9675;SDS011;4876;42.656;23.292;2022-10-30T08:53:00;12.63;;;9.57;;
9675;SDS011;4876;42.656;23.292;2022-10-30T08:55:29;14.63;;;9.70;;
9675;SDS011;4876;42.656;23.292;2022-10-30T08:57:56;17.50;;;10.83;;
9675;SDS011;4876;42.656;23.292;2022-10-30T09:00:23;15.20;;;10.60;;
9675;SDS011;4876;42.656;23.292;2022-10-30T09:02:50;13.47;;;10.63;;
9675;SDS011;4876;42.656;23.292;2022-10-30T09:05:17;12.77;;;9.90;;
9675;SDS011;4876;42.656;23.292;2022-10-30T09:07:45;16.70;;;9.97;;
9675;SDS011;4876;42.656;23.292;2022-10-30T09:10:12;11.60;;;9.47;;
9675;SDS011;4876;42.656;23.292;2022-10-30T09:12:40;13.97;;;9.80;;
9675;SDS011;4876;42.656;23.292;2022-10-30T09:15:07;16.07;;;10.47;;
9675;SDS011;4876;42.656;23.292;2022-10-30T09:17:34;14.40;;;10.30;;
9675;SDS011;4876;42.656;23.292;2022-10-30T09:20:01;15.30;;;10.87;;
9675;SDS011;4876;42.656;23.292;2022-10-30T09:22:28;15.70;;;10.63;;
9675;SDS011;4876;42.656;23.292;2022-10-30T09:24:54;15.47;;;11.17;;
9675;SDS011;4876;42.656;23.292;2022-10-30T09:27:21;13.73;;;10.23;;
9675;SDS011;4876;42.656;23.292;2022-10-30T09:29:49;15.93;;;11.30;;
9675;SDS011;4876;42.656;23.292;2022-10-30T09:32:16;15.83;;;11.20;;
9675;SDS011;4876;42.656;23.292;2022-10-30T09:34:43;24.73;;;11.83;;
9675;SDS011;4876;42.656;23.292;2022-10-30T09:37:09;16.30;;;11.00;;
9675;SDS011;4876;42.656;23.292;2022-10-30T09:39:36;14.87;;;11.33;;
9675;SDS011;4876;42.656;23.292;2022-10-30T09:42:07;14.10;;;10.87;;
9675;SDS011;4876;42.656;23.292;2022-10-30T09:44:50;12.20;;;9.93;;
9675;SDS011;4876;42.656;23.292;2022-10-30T09:47:28;13.97;;;9.60;;
9675;SDS011;4876;42.656;23.292;2022-10-30T09:50:14;17.53;;;10.77;;
9675;SDS011;4876;42.656;23.292;2022-10-30T09:52:51;13.47;;;10.17;;
9675;SDS011;4876;42.656;23.292;2022-10-30T09:55:32;14.00;;;8.90;;
9675;SDS011;4876;42.656;23.292;2022-10-30T09:58:10;10.83;;;8.43;;
9675;SDS011;4876;42.656;23.292;2022-10-30T10:00:49;11.67;;;8.23;;
9675;SDS011;4876;42.656;23.292;2022-10-30T10:03:25;13.13;;;8.90;;
9675;SDS011;4876;42.656;23.292;2022-10-30T10:06:02;11.07;;;8.00;;
9675;SDS011;4876;42.656;23.292;2022-10-30T10:08:31;11.40;;;8.40;;
9675;SDS011;4876;42.656;23.292;2022-10-30T10:11:04;11.07;;;7.27;;
9675;SDS011;4876;42.656;23.292;2022-10-30T10:13:38;9.37;;;7.03;;
9675;SDS011;4876;42.656;23.292;2022-10-30T10:16:12;8.07;;;6.00;;
9675;SDS011;4876;42.656;23.292;2022-10-30T10:18:44;8.37;;;5.90;;
9675;SDS011;4876;42.656;23.292;2022-10-30T10:21:14;8.27;;;6.30;;
9675;SDS011;4876;42.656;23.292;2022-10-30T10:23:53;7.97;;;5.67;;
9675;SDS011;4876;42.656;23.292;2022-10-30T10:26:28;12.20;;;6.20;;
9675;SDS011;4876;42.656;23.292;2022-10-30T10:29:05;7.83;;;5.60;;
9675;SDS011;4876;42.656;23.292;2022-10-30T10:31:48;10.17;;;6.43;;
9675;SDS011;4876;42.656;23.292;2022-10-30T10:34:34;6.20;;;5.07;;
9675;SDS011;4876;42.656;23.292;2022-10-30T10:37:14;5.77;;;4.40;;
9675;SDS011;4876;42.656;23.292;2022-10-30T10:39:57;6.57;;;4.57;;
9675;SDS011;4876;42.656;23.292;2022-10-30T10:42:44;6.00;;;4.13;;
9675;SDS011;4876;42.656;23.292;2022-10-30T10:45:23;4.77;;;3.40;;
9675;SDS011;4876;42.656;23.292;2022-10-30T10:48:02;5.70;;;3.80;;
9675;SDS011;4876;42.656;23.292;2022-10-30T10:50:46;4.40;;;4.00;;
9675;SDS011;4876;42.656;23.292;2022-10-30T10:53:17;3.70;;;3.17;;
9675;SDS011;4876;42.656;23.292;2022-10-30T10:55:48;4.90;;;3.23;;
9675;SDS011;4876;42.656;23.292;2022-10-30T10:58:21;4.43;;;3.13;;
9675;SDS011;4876;42.656;23.292;2022-10-30T11:00:53;6.83;;;2.90;;
9675;SDS011;4876;42.656;23.292;2022-10-30T11:03:26;5.63;;;3.57;;
9675;SDS011;4876;42.656;23.292;2022-10-30T11:06:01;6.37;;;3.10;;
9675;SDS011;4876;42.656;23.292;2022-10-30T11:08:37;5.10;;;3.13;;
9675;SDS011;4876;42.656;23.292;2022-10-30T11:11:04;5.97;;;3.40;;
9675;SDS011;4876;42.656;23.292;2022-10-30T11:13:33;4.47;;;3.23;;
9675;SDS011;4876;42.656;23.292;2022-10-30T11:16:03;3.60;;;2.90;;
9675;SDS011;4876;42.656;23.292;2022-10-30T11:18:39;6.67;;;3.20;;
9675;SDS011;4876;42.656;23.292;2022-10-30T11:21:08;7.87;;;3.20;;
9675;SDS011;4876;42.656;23.292;2022-10-30T11:23:37;3.13;;;2.60;;
9675;SDS011;4876;42.656;23.292;2022-10-30T11:26:25;4.30;;;2.80;;
9675;SDS011;4876;42.656;23.292;2022-10-30T11:28:54;5.53;;;3.17;;
9675;SDS011;4876;42.656;23.292;2022-10-30T11:31:24;4.33;;;3.53;;
9675;SDS011;4876;42.656;23.292;2022-10-30T11:33:59;4.23;;;2.97;;
9675;SDS011;4876;42.656;23.292;2022-10-30T11:36:39;5.37;;;2.90;;
9675;SDS011;4876;42.656;23.292;2022-10-30T11:39:08;3.20;;;2.90;;
9675;SDS011;4876;42.656;23.292;2022-10-30T11:41:35;3.57;;;2.83;;
9675;SDS011;4876;42.656;23.292;2022-10-30T11:44:03;3.97;;;2.70;;
9675;SDS011;4876;42.656;23.292;2022-10-30T11:46:30;3.00;;;2.63;;
9675;SDS011;4876;42.656;23.292;2022-10-30T11:49:02;2.73;;;2.30;;
9675;SDS011;4876;42.656;23.292;2022-10-30T11:51:30;3.33;;;2.43;;
9675;SDS011;4876;42.656;23.292;2022-10-30T11:54:01;3.53;;;2.80;;
9675;SDS011;4876;42.656;23.292;2022-10-30T11:56:28;8.30;;;3.03;;
9675;SDS011;4876;42.656;23.292;2022-10-30T11:58:57;2.67;;;2.40;;
9675;SDS011;4876;42.656;23.292;2022-10-30T12:01:26;3.40;;;2.47;;
9675;SDS011;4876;42.656;23.292;2022-10-30T12:03:54;3.63;;;2.30;;
9675;SDS011;4876;42.656;23.292;2022-10-30T12:06:27;2.37;;;1.97;;
9675;SDS011;4876;42.656;23.292;2022-10-30T12:08:58;4.27;;;2.67;;
9675;SDS011;4876;42.656;23.292;2022-10-30T12:11:26;3.07;;;2.20;;
9675;SDS011;4876;42.656;23.292;2022-10-30T12:13:55;7.57;;;2.43;;
9675;SDS011;4876;42.656;23.292;2022-10-30T12:16:23;6.00;;;2.50;;
9675;SDS011;4876;42.656;23.292;2022-10-30T12:18:54;3.13;;;2.00;;
9675;SDS011;4876;42.656;23.292;2022-10-30T12:21:26;4.27;;;2.43;;
9675;SDS011;4876;42.656;23.292;2022-10-30T12:23:56;3.73;;;2.60;;
9675;SDS011;4876;42.656;23.292;2022-10-30T12:26:31;5.30;;;2.77;;
9675;SDS011;4876;42.656;23.292;2022-10-30T12:29:00;4.57;;;2.67;;
9675;SDS011;4876;42.656;23.292;2022-10-30T12:31:34;5.13;;;2.80;;
9675;SDS011;4876;42.656;23.292;2022-10-30T12:34:08;3.87;;;2.57;;
9675;SDS011;4876;42.656;23.292;2022-10-30T12:36:52;4.03;;;2.83;;
9675;SDS011;4876;42.656;23.292;2022-10-30T12:39:26;3.23;;;2.53;;
9675;SDS011;4876;42.656;23.292;2022-10-30T12:41:57;6.90;;;1.97;;
9675;SDS011;4876;42.656;23.292;2022-10-30T12:44:29;3.87;;;2.20;;
9675;SDS011;4876;42.656;23.292;2022-10-30T12:47:01;3.60;;;2.30;;
9675;SDS011;4876;42.656;23.292;2022-10-30T12:49:36;2.23;;;1.77;;
9675;SDS011;4876;42.656;23.292;2022-10-30T12:52:09;2.23;;;2.03;;
9675;SDS011;4876;42.656;23.292;2022-10-30T12:54:42;7.10;;;2.07;;
9675;SDS011;4876;42.656;23.292;2022-10-30T12:57:16;8.33;;;2.03;;
9675;SDS011;4876;42.656;23.292;2022-10-30T12:59:50;3.37;;;2.00;;
9675;SDS011;4876;42.656;23.292;2022-10-30T13:02:27;6.90;;;2.37;;
9675;SDS011;4876;42.656;23.292;2022-10-30T13:05:06;2.77;;;2.00;;
9675;SDS011;4876;42.656;23.292;2022-10-30T13:07:46;3.90;;;1.90;;
9675;SDS011;4876;42.656;23.292;2022-10-30T13:10:21;4.30;;;1.70;;
9675;SDS011;4876;42.656;23.292;2022-10-30T13:12:54;1.93;;;1.47;;
9675;SDS011;4876;42.656;23.292;2022-10-30T13:15:28;2.73;;;1.73;;
9675;SDS011;4876;42.656;23.292;2022-10-30T13:17:58;2.77;;;1.50;;
9675;SDS011;4876;42.656;23.292;2022-10-30T13:20:31;4.33;;;1.67;;
9675;SDS011;4876;42.656;23.292;2022-10-30T13:23:02;2.83;;;1.70;;
9675;SDS011;4876;42.656;23.292;2022-10-30T13:25:38;2.97;;;1.50;;
9675;SDS011;4876;42.656;23.292;2022-10-30T13:28:17;2.87;;;1.97;;
9675;SDS011;4876;42.656;23.292;2022-10-30T13:30:52;3.37;;;1.73;;
9675;SDS011;4876;42.656;23.292;2022-10-30T13:33:28;2.57;;;1.97;;
9675;SDS011;4876;42.656;23.292;2022-10-30T13:36:02;1.63;;;1.50;;
9675;SDS011;4876;42.656;23.292;2022-10-30T13:38:38;2.57;;;2.13;;
9675;SDS011;4876;42.656;23.292;2022-10-30T13:41:15;1.43;;;1.33;;
9675;SDS011;4876;42.656;23.292;2022-10-30T13:43:52;3.47;;;1.93;;
9675;SDS011;4876;42.656;23.292;2022-10-30T13:46:30;1.90;;;1.50;;
9675;SDS011;4876;42.656;23.292;2022-10-30T13:49:16;2.20;;;1.20;;
9675;SDS011;4876;42.656;23.292;2022-10-30T13:51:56;2.60;;;1.57;;
9675;SDS011;4876;42.656;23.292;2022-10-30T13:54:30;4.73;;;1.80;;
9675;SDS011;4876;42.656;23.292;2022-10-30T13:57:02;2.80;;;1.60;;
9675;SDS011;4876;42.656;23.292;2022-10-30T13:59:44;3.53;;;2.20;;
9675;SDS011;4876;42.656;23.292;2022-10-30T14:02:22;3.33;;;1.77;;
9675;SDS011;4876;42.656;23.292;2022-10-30T14:04:58;2.97;;;1.70;;
9675;SDS011;4876;42.656;23.292;2022-10-30T14:07:37;4.47;;;1.77;;
9675;SDS011;4876;42.656;23.292;2022-10-30T14:10:13;2.23;;;1.67;;
9675;SDS011;4876;42.656;23.292;2022-10-30T14:12:51;3.77;;;1.70;;
9675;SDS011;4876;42.656;23.292;2022-10-30T14:15:31;2.37;;;1.57;;
9675;SDS011;4876;42.656;23.292;2022-10-30T14:20:52;2.90;;;1.70;;
9675;SDS011;4876;42.656;23.292;2022-10-30T14:23:21;3.90;;;1.70;;
9675;SDS011;4876;42.656;23.292;2022-10-30T14:28:44;3.87;;;2.20;;
9675;SDS011;4876;42.656;23.292;2022-10-30T14:31:13;6.03;;;1.87;;
9675;SDS011;4876;42.656;23.292;2022-10-30T14:33:46;2.10;;;1.60;;
9675;SDS011;4876;42.656;23.292;2022-10-30T14:36:15;3.70;;;1.77;;
9675;SDS011;4876;42.656;23.292;2022-10-30T14:41:54;3.37;;;2.10;;
9675;SDS011;4876;42.656;23.292;2022-10-30T14:44:33;5.73;;;2.43;;
9675;SDS011;4876;42.656;23.292;2022-10-30T14:50:15;7.53;;;3.10;;
9675;SDS011;4876;42.656;23.292;2022-10-30T14:52:51;6.73;;;2.80;;
9675;SDS011;4876;42.656;23.292;2022-10-30T14:55:28;4.03;;;2.10;;
9675;SDS011;4876;42.656;23.292;2022-10-30T14:58:15;3.77;;;2.13;;
9675;SDS011;4876;42.656;23.292;2022-10-30T15:00:46;3.10;;;2.30;;
9675;SDS011;4876;42.656;23.292;2022-10-30T15:03:25;5.57;;;2.30;;
9675;SDS011;4876;42.656;23.292;2022-10-30T15:06:05;4.37;;;1.83;;
9675;SDS011;4876;42.656;23.292;2022-10-30T15:08:49;4.40;;;2.33;;
9675;SDS011;4876;42.656;23.292;2022-10-30T15:11:34;2.07;;;1.87;;
9675;SDS011;4876;42.656;23.292;2022-10-30T15:14:13;3.90;;;2.10;;
9675;SDS011;4876;42.656;23.292;2022-10-30T15:16:48;4.30;;;1.90;;
9675;SDS011;4876;42.656;23.292;2022-10-30T15:19:16;3.27;;;2.40;;
9675;SDS011;4876;42.656;23.292;2022-10-30T15:21:47;3.57;;;2.20;;
9675;SDS011;4876;42.656;23.292;2022-10-30T15:24:18;3.17;;;2.27;;
9675;SDS011;4876;42.656;23.292;2022-10-30T15:26:48;4.67;;;2.17;;